Galion, Ohio
Current Conditions -  °F | °C
As of 7:52 AM on Friday 24 Oct 2014 (Local Time) from KMFD Reporting Station
Haze Haze  
Wind Chill: 34°   Ceiling: Unl
Heat Index: 38°   Visibility: 5mi
Dew Point: 37°   Wind: 5mph
Humidity: 97%   Direction: 190°S
Pressure: 30.09"   Gusts: NA
Location:  40.73°N, 82.79°W
Report Text: KMFD 241152Z 19004KT 5SM BR CLR 03/03 A3009 RMK AO2 SLP197 T00330028 10039 20017 58001
Loading
Personal Weather Stations






























Interactive Weather Map
Tropical Storm Tracking
New forecast layout! Learn more

10-Day Weather Forecast

Advertisements
Track Severe Weather on mobile